Time;durP1;ratioP1;P1;durP2;ratioP2;P2;SDS_P1;SDS_P2;PMS_P1;PMS_P2;Temp;Humidity;BMP_temperature;BMP_pressure;BME280_temperature;BME280_humidity;BME280_pressure;Samples;Min_cycle;Max_cycle;Signal;HPM_P1;HPM_P2
2023/12/27 00:01:51;;;;;;;6.30;3.13;;;8.40;98.00;;;;;;4994406;28;20485;-68
2023/12/27 00:04:19;;;;;;;4.80;2.87;;;8.40;98.00;;;;;;4994331;28;20866;-68
2023/12/27 00:06:46;;;;;;;6.10;3.17;;;8.40;98.00;;;;;;4994604;28;20541;-68
2023/12/27 00:09:14;;;;;;;8.30;3.03;;;8.40;98.00;;;;;;4994795;28;20449;-68
2023/12/27 00:11:42;;;;;;;8.20;3.20;;;8.30;98.00;;;;;;4994423;28;20461;-68
2023/12/27 00:14:09;;;;;;;8.97;3.63;;;8.30;98.00;;;;;;4994190;28;20453;-68
2023/12/27 00:16:36;;;;;;;15.40;3.43;;;8.30;98.00;;;;;;4993956;28;20997;-67
2023/12/27 00:19:03;;;;;;;7.67;3.33;;;8.30;98.00;;;;;;4994092;28;20455;-68
2023/12/27 00:21:30;;;;;;;6.53;3.47;;;8.30;98.00;;;;;;4993772;28;20915;-67
2023/12/27 00:23:57;;;;;;;5.67;3.10;;;8.10;98.00;;;;;;4994038;28;20464;-68
2023/12/27 00:26:24;;;;;;;6.20;2.60;;;8.10;98.00;;;;;;4993905;28;20449;-67
2023/12/27 00:28:53;;;;;;;5.50;2.43;;;8.20;98.00;;;;;;4993947;28;20777;-68
2023/12/27 00:31:20;;;;;;;5.20;2.83;;;8.20;98.00;;;;;;4993752;28;20460;-69
2023/12/27 00:33:47;;;;;;;4.63;2.80;;;8.20;98.00;;;;;;4993941;28;20461;-68
2023/12/27 00:36:19;;;;;;;5.20;2.90;;;8.20;98.00;;;;;;4993757;28;20518;-68
2023/12/27 00:38:47;;;;;;;5.70;2.73;;;8.30;98.00;;;;;;4993736;28;20455;-69
2023/12/27 00:41:14;;;;;;;4.30;2.70;;;8.30;98.00;;;;;;4993471;28;20451;-68
2023/12/27 00:43:41;;;;;;;5.00;2.90;;;8.30;98.00;;;;;;4993652;28;20789;-68
2023/12/27 00:46:10;;;;;;;5.33;2.57;;;8.30;98.00;;;;;;4992664;28;20450;-68
2023/12/27 00:48:37;;;;;;;4.07;2.73;;;8.30;98.00;;;;;;4993422;28;20455;-68
2023/12/27 00:51:05;;;;;;;7.20;3.03;;;8.30;98.00;;;;;;4993278;28;20477;-68
2023/12/27 00:53:33;;;;;;;2.90;2.23;;;8.10;98.00;;;;;;4993284;28;20458;-68
2023/12/27 00:56:01;;;;;;;3.47;2.30;;;8.10;98.00;;;;;;4992801;28;20445;-68
2023/12/27 00:58:28;;;;;;;6.40;2.80;;;8.10;98.00;;;;;;4992617;28;20451;-68
2023/12/27 01:00:55;;;;;;;4.33;2.60;;;8.30;98.00;;;;;;4993028;28;20486;-68
2023/12/27 01:03:24;;;;;;;3.97;2.20;;;8.30;98.00;;;;;;4993191;28;20542;-68
2023/12/27 01:05:54;;;;;;;6.40;2.60;;;8.30;98.00;;;;;;4993258;28;20459;-68
2023/12/27 01:08:22;;;;;;;4.10;2.50;;;8.30;98.00;;;;;;4993243;28;20456;-69
2023/12/27 01:10:49;;;;;;;4.83;2.30;;;8.20;98.00;;;;;;4993730;28;20464;-68
2023/12/27 01:13:16;;;;;;;3.93;2.50;;;8.20;98.00;;;;;;4993996;28;20822;-68
2023/12/27 01:15:43;;;;;;;4.30;2.33;;;8.20;98.00;;;;;;4993798;28;20936;-68
2023/12/27 01:18:10;;;;;;;7.60;2.43;;;8.20;98.00;;;;;;4992439;28;20459;-68
2023/12/27 01:20:38;;;;;;;4.90;2.40;;;8.10;98.00;;;;;;4993439;28;20456;-68
2023/12/27 01:23:05;;;;;;;3.23;2.30;;;8.10;98.00;;;;;;4993163;28;20488;-68
2023/12/27 01:25:32;;;;;;;3.13;1.93;;;8.10;98.00;;;;;;4993268;28;20971;-68
2023/12/27 01:27:59;;;;;;;3.67;2.13;;;8.10;98.00;;;;;;4993126;28;20464;-68
2023/12/27 01:30:26;;;;;;;3.37;2.10;;;8.10;98.00;;;;;;4993234;28;20467;-68
2023/12/27 01:32:53;;;;;;;3.03;2.37;;;8.00;98.00;;;;;;4993152;28;20830;-68
2023/12/27 01:35:20;;;;;;;5.30;2.63;;;7.90;98.00;;;;;;4992937;28;20945;-68
2023/12/27 01:37:48;;;;;;;3.13;2.27;;;7.90;98.00;;;;;;4992970;28;20457;-68
2023/12/27 01:40:16;;;;;;;3.47;2.43;;;7.90;98.00;;;;;;4992985;28;20457;-68
2023/12/27 01:42:43;;;;;;;4.10;2.60;;;7.90;98.00;;;;;;4992703;28;20488;-69
2023/12/27 01:45:11;;;;;;;2.80;2.10;;;7.90;98.00;;;;;;4992696;28;20456;-68
2023/12/27 01:47:38;;;;;;;4.03;2.40;;;8.00;98.00;;;;;;4993074;28;20813;-68
2023/12/27 01:50:08;;;;;;;4.67;2.60;;;8.00;98.00;;;;;;4993096;28;20858;-68
2023/12/27 01:52:35;;;;;;;3.60;1.97;;;8.10;98.00;;;;;;4992603;28;20445;-68
2023/12/27 01:55:04;;;;;;;3.17;2.00;;;8.10;98.00;;;;;;4992886;28;20453;-68
2023/12/27 01:57:31;;;;;;;4.47;2.30;;;8.30;98.00;;;;;;4992098;28;20951;-68
2023/12/27 01:59:58;;;;;;;10.83;4.53;;;8.50;98.00;;;;;;4992533;28;21117;-69
2023/12/27 02:02:26;;;;;;;7.03;3.63;;;8.40;98.00;;;;;;4992418;28;20565;-68
2023/12/27 02:04:53;;;;;;;6.33;2.70;;;8.40;98.00;;;;;;4992876;28;20451;-68
2023/12/27 02:07:20;;;;;;;4.57;2.50;;;8.40;98.00;;;;;;4992193;28;20453;-67
2023/12/27 02:09:49;;;;;;;6.20;2.53;;;8.40;98.00;;;;;;4992209;28;20466;-67
2023/12/27 02:12:26;;;;;;;6.13;2.80;;;8.40;98.00;;;;;;4992364;28;20444;-67
2023/12/27 02:14:53;;;;;;;4.97;2.43;;;8.50;98.00;;;;;;4992566;28;20458;-68
2023/12/27 02:17:21;;;;;;;5.60;2.40;;;8.40;98.00;;;;;;4991852;28;20466;-68
2023/12/27 02:19:48;;;;;;;4.93;2.60;;;8.30;98.00;;;;;;4991748;28;20969;-67
2023/12/27 02:22:20;;;;;;;5.10;2.80;;;8.30;98.00;;;;;;4991797;28;20494;-68
2023/12/27 02:24:50;;;;;;;4.20;2.60;;;8.30;98.00;;;;;;4991159;28;20479;-68
2023/12/27 02:27:17;;;;;;;4.30;2.83;;;8.30;98.00;;;;;;4992283;28;20463;-68
2023/12/27 02:29:44;;;;;;;3.67;2.63;;;8.30;98.00;;;;;;4992248;28;20456;-68
2023/12/27 02:32:11;;;;;;;4.50;2.80;;;8.30;98.00;;;;;;4992133;28;20481;-68
2023/12/27 02:34:38;;;;;;;4.80;2.70;;;8.30;98.00;;;;;;4992264;28;20450;-68
2023/12/27 02:37:05;;;;;;;4.73;2.80;;;8.20;98.00;;;;;;4992261;28;20501;-69
2023/12/27 02:39:32;;;;;;;3.60;2.47;;;8.20;98.00;;;;;;4991483;28;20456;-68
2023/12/27 02:42:01;;;;;;;3.70;2.53;;;8.10;98.00;;;;;;4991952;28;20831;-68
2023/12/27 02:44:28;;;;;;;4.70;2.43;;;8.10;98.00;;;;;;4991932;28;20469;-68
2023/12/27 02:46:55;;;;;;;4.10;2.50;;;8.20;98.00;;;;;;4992274;28;20445;-68
2023/12/27 02:49:22;;;;;;;3.30;2.20;;;8.10;98.00;;;;;;4992060;28;20825;-68
2023/12/27 02:51:49;;;;;;;3.63;2.27;;;8.00;98.00;;;;;;4992048;28;20453;-68
2023/12/27 02:54:16;;;;;;;4.83;2.83;;;7.90;98.00;;;;;;4992167;28;20866;-68
2023/12/27 02:56:43;;;;;;;6.53;2.63;;;7.90;98.00;;;;;;4992127;28;20822;-68
2023/12/27 02:59:12;;;;;;;3.33;2.27;;;8.00;98.00;;;;;;4992371;28;20455;-68
2023/12/27 03:01:39;;;;;;;4.97;2.33;;;8.00;98.00;;;;;;4992104;28;20453;-68
2023/12/27 03:04:06;;;;;;;6.53;2.33;;;8.00;98.00;;;;;;4991669;28;20994;-68
2023/12/27 03:06:33;;;;;;;3.70;2.40;;;8.00;98.00;;;;;;4991965;28;20489;-68
2023/12/27 03:09:00;;;;;;;3.33;2.40;;;7.90;98.00;;;;;;4993369;28;20948;-67
2023/12/27 03:11:28;;;;;;;3.20;2.20;;;7.90;98.00;;;;;;4995811;28;20469;-68
2023/12/27 03:13:55;;;;;;;3.03;2.30;;;7.90;98.00;;;;;;4995893;28;20459;-68
2023/12/27 03:16:23;;;;;;;4.97;2.60;;;8.00;98.00;;;;;;4995459;28;20459;-68
2023/12/27 03:18:51;;;;;;;5.53;2.33;;;8.10;98.00;;;;;;4995515;28;20462;-67
2023/12/27 03:21:18;;;;;;;7.60;2.93;;;8.10;98.00;;;;;;4995261;28;20474;-68
2023/12/27 03:23:45;;;;;;;4.07;2.40;;;8.10;98.00;;;;;;4995405;28;20497;-68
2023/12/27 03:26:12;;;;;;;6.10;2.60;;;8.00;98.00;;;;;;4995519;28;20840;-68
2023/12/27 03:28:39;;;;;;;3.40;2.40;;;8.10;98.00;;;;;;4995172;28;20472;-68
2023/12/27 03:31:06;;;;;;;5.80;2.30;;;8.10;98.00;;;;;;4995297;28;20502;-68
2023/12/27 03:33:35;;;;;;;3.13;2.27;;;8.10;98.00;;;;;;4995329;28;20463;-68
2023/12/27 03:36:02;;;;;;;3.63;2.57;;;7.90;98.00;;;;;;4995449;28;20457;-68
2023/12/27 03:38:29;;;;;;;7.30;2.40;;;8.00;98.00;;;;;;4994994;28;20458;-68
2023/12/27 03:40:56;;;;;;;6.30;2.30;;;7.90;98.00;;;;;;4995506;28;20837;-67
2023/12/27 03:43:23;;;;;;;2.53;2.30;;;7.90;98.00;;;;;;4995017;28;20986;-68
2023/12/27 03:45:51;;;;;;;4.57;2.13;;;7.90;98.00;;;;;;4994928;28;20461;-68
2023/12/27 03:48:18;;;;;;;3.70;2.30;;;7.90;98.00;;;;;;4994486;28;20456;-68
2023/12/27 03:50:47;;;;;;;6.20;2.20;;;7.90;98.00;;;;;;4994669;28;20458;-68
2023/12/27 03:53:13;;;;;;;2.80;2.17;;;7.80;98.00;;;;;;4994770;28;20466;-68
2023/12/27 03:55:43;;;;;;;4.80;2.30;;;7.80;98.00;;;;;;4994653;28;20800;-68
2023/12/27 03:58:10;;;;;;;3.70;2.30;;;7.70;98.00;;;;;;4994455;28;20458;-68
2023/12/27 04:00:37;;;;;;;3.40;2.27;;;7.80;98.00;;;;;;4994588;28;20461;-69
2023/12/27 04:03:04;;;;;;;4.20;2.03;;;7.80;98.00;;;;;;4994432;28;21149;-68
2023/12/27 04:05:31;;;;;;;4.40;2.47;;;7.90;98.00;;;;;;4994864;28;20480;-68
2023/12/27 04:08:00;;;;;;;2.70;2.00;;;8.00;98.00;;;;;;4994245;28;20473;-68
2023/12/27 04:10:31;;;;;;;5.90;2.67;;;7.90;98.00;;;;;;4994251;28;20820;-68
2023/12/27 04:12:58;;;;;;;4.30;2.27;;;7.90;98.00;;;;;;4994409;28;20463;-68
2023/12/27 04:15:25;;;;;;;3.93;2.10;;;8.00;98.00;;;;;;4994272;28;20483;-67
2023/12/27 04:17:52;;;;;;;5.20;2.70;;;8.10;98.00;;;;;;4994035;28;20457;-69
2023/12/27 04:20:19;;;;;;;5.10;2.70;;;7.90;98.00;;;;;;4993778;28;20468;-68
2023/12/27 04:22:46;;;;;;;3.90;2.30;;;7.80;98.00;;;;;;4993323;28;20491;-67
2023/12/27 04:25:16;;;;;;;7.27;2.80;;;7.90;98.00;;;;;;4993877;28;20970;-68
2023/12/27 04:27:43;;;;;;;4.20;2.70;;;7.90;98.00;;;;;;4993923;28;20552;-68
2023/12/27 04:30:11;;;;;;;3.50;2.50;;;7.90;98.00;;;;;;4994060;28;20995;-68
2023/12/27 04:32:38;;;;;;;3.80;2.40;;;7.80;98.00;;;;;;4993825;28;20456;-68
2023/12/27 04:35:06;;;;;;;4.20;2.80;;;7.80;98.00;;;;;;4993862;28;20459;-67
2023/12/27 04:37:33;;;;;;;5.33;2.80;;;7.80;98.00;;;;;;4993813;28;20536;-67
2023/12/27 04:40:00;;;;;;;4.93;2.53;;;7.80;98.00;;;;;;4993867;28;20445;-67
2023/12/27 04:42:29;;;;;;;4.50;2.60;;;7.80;98.00;;;;;;4993561;28;20458;-67
2023/12/27 04:44:56;;;;;;;6.33;3.10;;;7.80;98.00;;;;;;4993631;28;20455;-68
2023/12/27 04:47:23;;;;;;;6.03;2.97;;;7.70;98.00;;;;;;4992409;28;20457;-68
2023/12/27 04:49:50;;;;;;;9.50;3.00;;;7.70;98.00;;;;;;4993632;28;20513;-68
2023/12/27 04:52:18;;;;;;;5.40;2.60;;;7.70;98.00;;;;;;4993687;28;20881;-68
2023/12/27 04:54:45;;;;;;;9.70;2.90;;;7.70;98.00;;;;;;4992968;28;20457;-68
2023/12/27 04:57:12;;;;;;;5.57;2.93;;;7.90;98.00;;;;;;4993554;28;21072;-68
2023/12/27 04:59:41;;;;;;;5.07;2.70;;;8.10;98.00;;;;;;4976452;28;20540;-68
2023/12/27 05:02:08;;;;;;;4.40;2.80;;;8.10;98.00;;;;;;4993458;28;20950;-68
2023/12/27 05:04:35;;;;;;;8.33;3.30;;;8.00;98.00;;;;;;4993382;28;20547;-68
2023/12/27 05:07:02;;;;;;;5.80;2.87;;;7.90;98.00;;;;;;4993266;28;20823;-68
2023/12/27 05:09:29;;;;;;;4.90;2.30;;;7.80;98.00;;;;;;4993496;28;20464;-68
2023/12/27 05:11:56;;;;;;;3.93;2.47;;;7.80;98.00;;;;;;4993432;28;20834;-67
2023/12/27 05:14:23;;;;;;;4.57;2.50;;;7.60;98.00;;;;;;4993344;28;20453;-68
2023/12/27 05:16:55;;;;;;;4.47;2.57;;;7.40;98.00;;;;;;4993080;28;20458;-67
2023/12/27 05:19:30;;;;;;;9.67;3.10;;;7.50;98.00;;;;;;4993422;28;20480;-68
2023/12/27 05:22:03;;;;;;;4.30;2.70;;;7.50;98.00;;;;;;4989355;28;20542;-68
2023/12/27 05:24:30;;;;;;;4.60;2.60;;;7.40;98.00;;;;;;4993249;28;20494;-68
2023/12/27 05:26:58;;;;;;;4.63;2.70;;;7.40;98.00;;;;;;4992917;28;20466;-67
2023/12/27 05:29:25;;;;;;;4.30;2.80;;;7.40;98.00;;;;;;4992404;28;20461;-68
2023/12/27 05:31:53;;;;;;;5.70;2.67;;;7.40;98.00;;;;;;4992294;28;20959;-68
2023/12/27 05:34:20;;;;;;;4.77;2.63;;;7.40;98.00;;;;;;4992630;28;20458;-68
2023/12/27 05:36:48;;;;;;;5.00;2.73;;;7.40;98.00;;;;;;4992825;28;20962;-68
2023/12/27 05:39:15;;;;;;;5.30;3.00;;;7.40;98.00;;;;;;4993088;28;20464;-67
2023/12/27 05:41:42;;;;;;;7.17;2.67;;;7.40;98.00;;;;;;4992699;28;20460;-68
2023/12/27 05:44:09;;;;;;;4.00;2.50;;;7.40;98.00;;;;;;4992783;28;20485;-68
2023/12/27 05:46:36;;;;;;;4.93;2.83;;;7.30;98.00;;;;;;4992581;28;20475;-67
2023/12/27 05:49:04;;;;;;;5.70;3.17;;;7.20;98.00;;;;;;4992500;28;20452;-68
2023/12/27 05:51:33;;;;;;;4.60;2.70;;;7.20;98.00;;;;;;4992487;28;20959;-68
2023/12/27 05:54:00;;;;;;;4.67;2.37;;;7.10;98.00;;;;;;4992466;28;20460;-68
2023/12/27 05:56:28;;;;;;;3.63;2.47;;;7.00;98.00;;;;;;4992468;28;20522;-68
2023/12/27 05:58:55;;;;;;;5.30;2.63;;;7.00;98.00;;;;;;4992463;28;20463;-67
2023/12/27 06:01:22;;;;;;;5.97;3.07;;;7.00;98.00;;;;;;4992145;28;20463;-68
2023/12/27 06:03:50;;;;;;;5.63;2.83;;;6.90;98.00;;;;;;4992370;28;20484;-67
2023/12/27 06:06:18;;;;;;;5.90;2.90;;;6.90;98.00;;;;;;4992418;28;20929;-69
2023/12/27 06:08:48;;;;;;;5.53;3.00;;;6.90;98.00;;;;;;4992341;28;20494;-68
2023/12/27 06:11:17;;;;;;;5.43;2.93;;;6.80;98.00;;;;;;4992617;28;20475;-67
2023/12/27 06:13:44;;;;;;;5.30;3.00;;;6.90;98.00;;;;;;4992349;28;20943;-68
2023/12/27 06:16:11;;;;;;;6.20;2.67;;;6.80;98.00;;;;;;4992400;28;20454;-67
2023/12/27 06:18:38;;;;;;;4.20;2.50;;;6.80;98.00;;;;;;4992190;28;20979;-68
2023/12/27 06:21:06;;;;;;;5.87;3.00;;;6.90;98.00;;;;;;4992458;28;20456;-68
2023/12/27 06:23:34;;;;;;;4.83;2.57;;;6.80;98.00;;;;;;4992278;28;20525;-68
2023/12/27 06:26:09;;;;;;;6.17;2.87;;;6.80;98.00;;;;;;4992203;28;20466;-68
2023/12/27 06:28:36;;;;;;;4.80;2.67;;;6.80;98.00;;;;;;4991535;28;20466;-68
2023/12/27 06:31:03;;;;;;;4.60;2.60;;;6.70;98.00;;;;;;4991565;28;20794;-67
2023/12/27 06:33:31;;;;;;;5.90;3.00;;;6.60;98.00;;;;;;4991753;28;20482;-68
2023/12/27 06:35:58;;;;;;;4.93;2.70;;;6.60;98.00;;;;;;4992447;28;20474;-68
2023/12/27 06:38:26;;;;;;;4.80;2.87;;;6.50;98.00;;;;;;4992407;28;20873;-68
2023/12/27 06:40:56;;;;;;;4.87;2.43;;;6.50;98.00;;;;;;4992437;28;20464;-67
2023/12/27 06:43:23;;;;;;;3.93;2.40;;;6.50;98.00;;;;;;4992718;28;20806;-68
2023/12/27 06:45:50;;;;;;;3.70;2.57;;;6.60;98.00;;;;;;4996181;28;20452;-68
2023/12/27 06:48:21;;;;;;;4.60;2.80;;;6.60;98.00;;;;;;4996040;28;20507;-68
2023/12/27 06:50:49;;;;;;;14.20;5.27;;;6.50;98.00;;;;;;4996225;28;20915;-68
2023/12/27 06:53:16;;;;;;;7.33;3.40;;;6.50;98.00;;;;;;4995853;28;20463;-68
2023/12/27 06:55:43;;;;;;;4.70;2.77;;;6.40;98.00;;;;;;4996055;28;20821;-68
2023/12/27 06:58:11;;;;;;;4.20;2.43;;;6.40;98.00;;;;;;4995799;28;20471;-68
2023/12/27 07:00:39;;;;;;;4.60;2.73;;;6.50;98.00;;;;;;4995857;28;20447;-73
2023/12/27 07:03:06;;;;;;;4.90;2.73;;;6.50;98.00;;;;;;4995685;28;20451;-72
2023/12/27 07:05:34;;;;;;;4.73;2.60;;;6.40;98.00;;;;;;4995551;28;20486;-72
2023/12/27 07:08:01;;;;;;;3.60;2.43;;;6.30;98.00;;;;;;4995937;28;20461;-72
2023/12/27 07:10:28;;;;;;;11.53;4.00;;;6.30;98.00;;;;;;4994787;28;20454;-73
2023/12/27 07:12:55;;;;;;;5.80;3.20;;;6.40;98.00;;;;;;4995169;28;20463;-73
2023/12/27 07:15:24;;;;;;;5.90;2.93;;;6.50;98.00;;;;;;4995193;28;20474;-73
2023/12/27 07:17:51;;;;;;;6.17;3.00;;;6.50;98.00;;;;;;4995646;28;20878;-74
2023/12/27 07:20:18;;;;;;;6.47;3.30;;;6.50;98.00;;;;;;4995742;28;20961;-73
2023/12/27 07:22:46;;;;;;;6.37;2.93;;;6.40;98.00;;;;;;4995390;28;20475;-73
2023/12/27 07:25:13;;;;;;;4.90;2.60;;;6.40;98.00;;;;;;4995074;28;20498;-73
2023/12/27 07:27:40;;;;;;;5.53;2.90;;;6.40;98.00;;;;;;4994814;28;20809;-73
2023/12/27 07:30:08;;;;;;;8.17;3.70;;;6.40;98.00;;;;;;4995201;28;20804;-74
2023/12/27 07:32:36;;;;;;;6.37;3.23;;;6.50;98.00;;;;;;4995075;28;20459;-73
2023/12/27 07:35:04;;;;;;;11.70;3.77;;;6.50;98.00;;;;;;4995199;28;20455;-74
2023/12/27 07:37:33;;;;;;;8.63;3.60;;;6.60;98.00;;;;;;4994761;28;20456;-74
2023/12/27 07:40:02;;;;;;;7.90;3.80;;;6.70;98.00;;;;;;4994185;28;20459;-73
2023/12/27 07:42:30;;;;;;;8.83;3.87;;;6.80;98.00;;;;;;4993369;28;20460;-73
2023/12/27 07:44:57;;;;;;;10.17;4.40;;;6.70;98.00;;;;;;4994173;28;20491;-74
2023/12/27 07:47:24;;;;;;;14.83;4.70;;;6.80;98.00;;;;;;4994645;28;20459;-73
2023/12/27 07:49:52;;;;;;;15.13;4.83;;;6.70;98.00;;;;;;4994657;28;20471;-73
2023/12/27 07:52:19;;;;;;;11.57;5.00;;;6.70;98.00;;;;;;4994642;28;20456;-74
2023/12/27 07:54:46;;;;;;;12.23;4.53;;;6.60;98.00;;;;;;4994062;28;20459;-74
2023/12/27 07:57:13;;;;;;;10.40;4.27;;;6.60;98.00;;;;;;4994379;28;20462;-73
2023/12/27 07:59:41;;;;;;;14.23;4.60;;;6.70;98.00;;;;;;4993527;28;20472;-72
2023/12/27 08:02:08;;;;;;;11.77;4.97;;;6.70;98.00;;;;;;4994650;28;20879;-73
2023/12/27 08:04:35;;;;;;;10.40;4.47;;;6.70;98.00;;;;;;4994285;28;20484;-74
2023/12/27 08:07:04;;;;;;;9.53;4.30;;;6.80;98.00;;;;;;4994130;28;20966;-73
2023/12/27 08:09:31;;;;;;;9.87;4.53;;;6.90;98.00;;;;;;4994186;28;20459;-73
2023/12/27 08:11:58;;;;;;;9.37;4.50;;;7.00;98.00;;;;;;4994203;28;20463;-73
2023/12/27 08:14:25;;;;;;;9.50;3.80;;;7.00;98.00;;;;;;4994409;28;20850;-74
2023/12/27 08:16:53;;;;;;;8.00;4.30;;;7.00;98.00;;;;;;4994098;28;20468;-73
2023/12/27 08:19:20;;;;;;;8.07;3.97;;;7.00;98.00;;;;;;4994277;28;20815;-73
2023/12/27 08:21:50;;;;;;;7.70;3.67;;;6.90;98.00;;;;;;4992467;28;20476;-72
2023/12/27 08:24:18;;;;;;;8.47;3.97;;;7.00;98.00;;;;;;4991944;28;20992;-72
2023/12/27 08:26:46;;;;;;;6.50;3.53;;;7.00;98.00;;;;;;4993750;28;20458;-73
2023/12/27 08:29:13;;;;;;;8.87;3.97;;;7.00;98.00;;;;;;4994011;28;20490;-73
2023/12/27 08:31:40;;;;;;;9.23;4.37;;;7.00;98.00;;;;;;4993996;28;20483;-74
2023/12/27 08:34:08;;;;;;;10.20;3.83;;;7.10;98.00;;;;;;4993888;28;20458;-72
2023/12/27 08:36:35;;;;;;;8.60;4.20;;;7.10;98.00;;;;;;4994099;28;20455;-73
2023/12/27 08:39:05;;;;;;;11.00;4.40;;;7.10;98.00;;;;;;4994183;28;21035;-73
2023/12/27 08:41:34;;;;;;;7.67;3.87;;;7.20;98.00;;;;;;4993436;28;20467;-73
2023/12/27 08:44:01;;;;;;;8.47;4.07;;;7.50;98.00;;;;;;4993803;28;20462;-73
2023/12/27 08:46:28;;;;;;;10.33;4.37;;;7.40;98.00;;;;;;4994215;28;20456;-72
2023/12/27 08:48:55;;;;;;;7.93;4.10;;;7.40;98.00;;;;;;5078564;23;20513;-87
2023/12/27 08:57:41;;;;;;;9.60;3.97;;;7.40;98.00;;;;;;4959922;23;20835;-67
2023/12/27 09:00:10;;;;;;;6.37;3.57;;;7.60;98.00;;;;;;4992584;28;20454;-66
2023/12/27 09:02:37;;;;;;;11.37;4.00;;;7.60;98.00;;;;;;4992429;28;20463;-67
2023/12/27 09:05:05;;;;;;;9.33;4.43;;;7.60;98.00;;;;;;4992506;28;20533;-67
2023/12/27 09:07:32;;;;;;;8.17;3.90;;;7.80;98.00;;;;;;4991651;28;20857;-66
2023/12/27 09:10:00;;;;;;;8.43;4.50;;;7.80;98.00;;;;;;4992459;28;20973;-67
2023/12/27 09:12:27;;;;;;;8.03;4.17;;;7.80;98.00;;;;;;4992253;28;20456;-67
2023/12/27 09:14:55;;;;;;;11.83;5.37;;;7.90;98.00;;;;;;4992329;28;20947;-66
2023/12/27 09:17:22;;;;;;;8.60;4.27;;;7.80;98.00;;;;;;4992210;28;20467;-67
2023/12/27 09:19:49;;;;;;;10.07;4.90;;;7.90;98.00;;;;;;4992235;28;20862;-66
2023/12/27 09:22:17;;;;;;;8.13;4.30;;;8.10;98.00;;;;;;4992304;28;20460;-67
2023/12/27 09:24:44;;;;;;;6.77;3.90;;;8.10;98.00;;;;;;4992006;28;20487;-67
2023/12/27 09:27:12;;;;;;;8.97;4.17;;;8.10;98.00;;;;;;4992016;28;20456;-67
2023/12/27 09:29:39;;;;;;;7.37;3.93;;;8.30;98.00;;;;;;4992603;28;20453;-67
2023/12/27 09:32:08;;;;;;;8.10;4.20;;;8.20;98.00;;;;;;4992868;28;20826;-67
2023/12/27 09:34:35;;;;;;;10.30;4.70;;;8.10;98.00;;;;;;4992554;28;20510;-66
2023/12/27 09:37:03;;;;;;;9.47;4.50;;;8.00;98.00;;;;;;4992718;28;20459;-66
2023/12/27 09:39:30;;;;;;;13.33;5.03;;;8.00;98.00;;;;;;4992772;28;21150;-67
2023/12/27 09:41:58;;;;;;;9.77;4.40;;;8.10;98.00;;;;;;4992967;28;20700;-65
2023/12/27 09:44:25;;;;;;;9.60;4.50;;;8.30;98.00;;;;;;4992545;28;20562;-65
2023/12/27 09:46:55;;;;;;;9.57;4.57;;;8.30;98.00;;;;;;4992532;28;20460;-64
2023/12/27 09:49:24;;;;;;;10.73;4.90;;;8.30;98.00;;;;;;4992455;28;20462;-64
2023/12/27 09:51:55;;;;;;;8.60;4.53;;;8.30;98.00;;;;;;4992799;28;20467;-66
2023/12/27 09:54:26;;;;;;;9.53;4.50;;;8.40;98.00;;;;;;4992603;28;20462;-66
2023/12/27 09:56:54;;;;;;;10.43;4.87;;;8.50;98.00;;;;;;4991506;28;20459;-66
2023/12/27 09:59:28;;;;;;;7.80;4.43;;;8.60;98.00;;;;;;4992415;28;20463;-66
2023/12/27 10:02:01;;;;;;;10.30;4.93;;;8.70;98.00;;;;;;4992771;28;20453;-66
2023/12/27 10:04:39;;;;;;;9.67;4.80;;;8.60;98.00;;;;;;4992625;28;20466;-66
2023/12/27 10:07:08;;;;;;;8.53;4.17;;;8.60;98.00;;;;;;5008943;28;20873;-66
2023/12/27 10:09:35;;;;;;;8.67;4.60;;;8.60;98.00;;;;;;5012362;28;20460;-65
2023/12/27 10:12:04;;;;;;;7.90;4.00;;;8.50;98.00;;;;;;5011846;28;20945;-66
2023/12/27 10:14:33;;;;;;;10.20;4.33;;;8.60;98.00;;;;;;5012125;28;20956;-66
2023/12/27 10:17:00;;;;;;;9.60;3.80;;;8.60;98.00;;;;;;5012131;28;20456;-65
2023/12/27 10:19:42;;;;;;;12.10;4.90;;;8.60;98.00;;;;;;5016256;28;20954;-64
2023/12/27 10:22:10;;;;;;;9.80;4.63;;;8.70;98.00;;;;;;5015935;28;20460;-64
2023/12/27 10:24:38;;;;;;;7.37;4.03;;;8.70;98.00;;;;;;5015947;28;20576;-64
2023/12/27 10:27:05;;;;;;;11.43;4.03;;;8.70;98.00;;;;;;5016190;28;20878;-65
2023/12/27 10:29:33;;;;;;;10.20;4.20;;;8.70;98.00;;;;;;5016006;28;20802;-64
2023/12/27 10:32:01;;;;;;;6.30;3.60;;;8.70;98.00;;;;;;5015769;28;20465;-64
2023/12/27 10:34:29;;;;;;;7.60;3.60;;;8.80;98.00;;;;;;5015782;28;20452;-64
2023/12/27 10:36:59;;;;;;;5.00;3.00;;;8.90;98.00;;;;;;4997293;28;20441;-64
2023/12/27 10:39:26;;;;;;;4.90;3.17;;;9.00;98.00;;;;;;4994807;28;20490;-64
2023/12/27 10:41:53;;;;;;;5.30;2.70;;;9.10;98.00;;;;;;4995989;28;20458;-65
2023/12/27 10:44:20;;;;;;;5.40;2.70;;;9.30;98.00;;;;;;4995966;28;20928;-64
2023/12/27 10:46:48;;;;;;;7.60;3.03;;;9.40;98.00;;;;;;4995689;28;20949;-64
2023/12/27 10:49:15;;;;;;;4.53;2.70;;;9.40;98.00;;;;;;4995652;28;20452;-64
2023/12/27 10:51:43;;;;;;;7.30;3.10;;;9.40;98.00;;;;;;4995646;28;20567;-64
2023/12/27 10:54:14;;;;;;;4.40;2.73;;;9.90;98.00;;;;;;4995754;28;20864;-64
2023/12/27 10:56:42;;;;;;;5.50;2.83;;;10.00;98.00;;;;;;4995713;28;20452;-64
2023/12/27 10:59:10;;;;;;;5.97;2.73;;;10.10;98.00;;;;;;4996034;28;20464;-64
2023/12/27 11:01:39;;;;;;;4.77;2.50;;;10.20;98.00;;;;;;4995779;28;20457;-65
2023/12/27 11:04:09;;;;;;;6.40;3.00;;;10.20;98.00;;;;;;4995804;28;20458;-65
2023/12/27 11:06:38;;;;;;;4.27;2.60;;;10.20;98.00;;;;;;4995733;28;21052;-65
2023/12/27 11:09:07;;;;;;;3.60;2.40;;;10.20;98.00;;;;;;4995474;28;20491;-66
2023/12/27 11:11:38;;;;;;;8.60;3.60;;;10.40;98.00;;;;;;4995413;28;20544;-66
2023/12/27 11:14:07;;;;;;;4.37;2.47;;;10.60;98.00;;;;;;4995331;28;20455;-65
2023/12/27 11:16:35;;;;;;;6.20;2.40;;;10.80;98.00;;;;;;5003360;28;20536;-66
2023/12/27 11:19:05;;;;;;;6.87;3.00;;;11.10;98.00;;;;;;5000470;28;20933;-65
2023/12/27 11:21:32;;;;;;;7.73;2.70;;;11.20;98.00;;;;;;4995297;28;20457;-66
2023/12/27 11:24:00;;;;;;;3.80;2.47;;;11.20;98.00;;;;;;4995377;28;20517;-65
2023/12/27 11:26:28;;;;;;;6.07;2.77;;;11.40;98.00;;;;;;4995291;28;20844;-65
2023/12/27 11:28:57;;;;;;;4.57;2.97;;;11.50;98.00;;;;;;4994771;28;20457;-65
2023/12/27 11:31:24;;;;;;;3.70;2.53;;;11.70;98.00;;;;;;4994059;28;20464;-66
2023/12/27 11:33:53;;;;;;;5.83;2.90;;;11.80;98.00;;;;;;4995279;28;20786;-65
2023/12/27 11:36:21;;;;;;;4.17;2.40;;;12.00;98.00;;;;;;4995217;28;20465;-65
2023/12/27 11:38:48;;;;;;;4.50;3.00;;;12.10;98.00;;;;;;4994789;28;20462;-65
2023/12/27 11:41:15;;;;;;;6.83;2.60;;;12.10;98.00;;;;;;4995018;28;20458;-65
2023/12/27 11:43:52;;;;;;;4.07;2.30;;;11.90;98.00;;;;;;4994812;28;20455;-65
2023/12/27 11:46:27;;;;;;;4.37;2.20;;;11.90;98.00;;;;;;4993665;28;20914;-65
2023/12/27 11:48:54;;;;;;;4.50;2.53;;;12.00;98.00;;;;;;4995018;28;20448;-65
2023/12/27 11:51:30;;;;;;;3.27;2.50;;;12.00;98.00;;;;;;4995021;28;20463;-65
2023/12/27 11:53:57;;;;;;;5.23;2.70;;;12.20;98.00;;;;;;4994883;28;20457;-65
2023/12/27 11:56:28;;;;;;;4.90;2.87;;;12.30;98.00;;;;;;4994745;28;20471;-65
2023/12/27 11:58:56;;;;;;;4.40;2.80;;;12.40;98.00;;;;;;4993430;28;20474;-66
2023/12/27 12:01:28;;;;;;;5.13;3.00;;;12.40;98.00;;;;;;4994721;28;20534;-65
2023/12/27 12:04:26;;;;;;;11.83;3.07;;;12.50;98.00;;;;;;4994740;28;20951;-65
2023/12/27 12:07:25;;;;;;;4.70;2.90;;;12.60;98.00;;;;;;4994876;28;20585;-65
2023/12/27 12:09:53;;;;;;;6.17;2.90;;;12.60;98.00;;;;;;4994801;28;21011;-66
2023/12/27 12:12:22;;;;;;;5.27;2.73;;;12.70;98.00;;;;;;4994871;28;20451;-65
2023/12/27 12:14:51;;;;;;;5.87;2.63;;;12.70;98.00;;;;;;4994465;28;20456;-65
2023/12/27 12:17:21;;;;;;;5.10;2.80;;;12.80;98.00;;;;;;4994097;28;20943;-66
2023/12/27 12:19:49;;;;;;;5.00;2.60;;;12.80;98.00;;;;;;4994300;28;20876;-65
2023/12/27 12:22:17;;;;;;;3.53;2.13;;;12.90;98.00;;;;;;4994102;28;20542;-65
2023/12/27 12:24:45;;;;;;;5.43;2.53;;;13.20;98.00;;;;;;4982996;28;20447;-66
2023/12/27 12:27:15;;;;;;;4.20;2.47;;;13.30;98.00;;;;;;4980057;28;20522;-63
2023/12/27 12:29:43;;;;;;;3.27;2.23;;;13.80;98.00;;;;;;4974929;28;20470;-63
2023/12/27 12:32:13;;;;;;;3.93;2.47;;;13.90;98.00;;;;;;4974349;28;20456;-67
2023/12/27 12:34:43;;;;;;;5.53;2.80;;;14.00;98.00;;;;;;4974465;28;20453;-66
2023/12/27 12:37:10;;;;;;;6.67;2.97;;;13.70;98.00;;;;;;4957263;28;20452;-67
2023/12/27 12:39:37;;;;;;;5.60;2.53;;;13.70;98.00;;;;;;4974467;28;20849;-67
2023/12/27 12:42:05;;;;;;;4.60;2.40;;;13.60;98.00;;;;;;4974385;28;20512;-66
2023/12/27 12:44:32;;;;;;;4.70;2.57;;;13.90;98.00;;;;;;4974410;28;20464;-66
2023/12/27 12:47:04;;;;;;;4.77;3.03;;;13.90;98.00;;;;;;4974061;28;20577;-66
2023/12/27 12:49:32;;;;;;;4.67;2.40;;;13.90;98.00;;;;;;4974378;28;20828;-66
2023/12/27 12:52:07;;;;;;;4.23;2.60;;;14.00;98.00;;;;;;4974493;28;20490;-66
2023/12/27 12:54:35;;;;;;;9.80;3.07;;;14.10;98.00;;;;;;4989001;28;20482;-66
2023/12/27 12:57:03;;;;;;;4.83;2.50;;;14.10;98.00;;;;;;4974166;28;20465;-64
2023/12/27 12:59:30;;;;;;;6.30;2.40;;;14.00;98.00;;;;;;4973913;28;20467;-64
2023/12/27 13:01:57;;;;;;;4.07;2.60;;;13.90;98.00;;;;;;4974126;28;20457;-64
2023/12/27 13:04:25;;;;;;;4.70;2.50;;;13.80;98.00;;;;;;4973976;28;20460;-64
2023/12/27 13:07:00;;;;;;;4.90;2.63;;;13.80;98.00;;;;;;4973220;28;20920;-65